Time,TemperatureF,DewpointF,PressureIn,WindDirection,WindDirectionDegrees,WindSpeedMPH,WindSpeedGustMPH,Humidity,HourlyPrecipIn,Conditions,Clouds,dailyrainin,SoftwareType,DateUTC
2013-04-17 00:11:00,28.9,27.0,30.23,SSE,150,0.0,0.0,91,0.00,,,0.00,weatherlink.com 1.10,2013-04-17 07:11:00,
2013-04-17 00:26:00,28.1,26.0,30.23,SSE,150,0.0,0.0,91,0.00,,,0.00,weatherlink.com 1.10,2013-04-17 07:26:00,
2013-04-17 00:41:00,27.4,25.0,30.23,SSE,150,0.0,0.0,92,0.00,,,0.00,weatherlink.com 1.10,2013-04-17 07:41:00,
2013-04-17 00:56:00,26.9,25.0,30.23,SSE,151,0.0,0.0,93,0.00,,,0.00,weatherlink.com 1.10,2013-04-17 07:56:00,
2013-04-17 01:11:00,26.5,25.0,30.23,SSE,149,0.0,0.0,93,0.00,,,0.00,weatherlink.com 1.10,2013-04-17 08:11:00,
2013-04-17 01:26:00,26.3,25.0,30.23,SSE,149,0.0,0.0,93,0.00,,,0.00,weatherlink.com 1.10,2013-04-17 08:26:00,
2013-04-17 01:41:00,25.7,24.0,30.23,SSE,149,0.0,0.0,93,0.00,,,0.00,weatherlink.com 1.10,2013-04-17 08:41:00,
2013-04-17 01:56:00,25.3,24.0,30.23,SSE,150,0.0,0.0,94,0.00,,,0.00,weatherlink.com 1.10,2013-04-17 08:56:00,
2013-04-17 02:11:00,25.1,24.0,30.23,SSE,149,0.0,0.0,94,0.00,,,0.00,weatherlink.com 1.10,2013-04-17 09:11:00,
2013-04-17 02:26:00,24.5,23.0,30.23,SSE,150,0.0,0.0,93,0.00,,,0.00,weatherlink.com 1.10,2013-04-17 09:26:00,
2013-04-17 02:41:00,23.9,22.0,30.23,SSE,150,0.0,0.0,93,0.00,,,0.00,weatherlink.com 1.10,2013-04-17 09:41:00,
2013-04-17 02:56:00,23.4,22.0,30.23,SSE,150,0.0,0.0,93,0.00,,,0.00,weatherlink.com 1.10,2013-04-17 09:56:00,
2013-04-17 03:11:00,22.8,21.0,30.23,SSE,150,0.0,0.0,93,0.00,,,0.00,weatherlink.com 1.10,2013-04-17 10:11:00,
2013-04-17 03:26:00,22.6,21.0,30.24,SSE,150,0.0,0.0,94,0.00,,,0.00,weatherlink.com 1.10,2013-04-17 10:26:00,
2013-04-17 03:41:00,22.5,21.0,30.24,SSE,150,0.0,0.0,94,0.00,,,0.00,weatherlink.com 1.10,2013-04-17 10:41:00,
2013-04-17 03:57:00,22.4,21.0,30.24,SSE,151,0.0,0.0,94,0.00,,,0.00,weatherlink.com 1.10,2013-04-17 10:57:00,
2013-04-17 04:12:00,22.0,20.0,30.24,SSE,150,0.0,0.0,93,0.00,,,0.00,weatherlink.com 1.10,2013-04-17 11:12:00,
2013-04-17 04:27:00,21.2,19.0,30.25,SSE,150,0.0,0.0,92,0.00,,,0.00,weatherlink.com 1.10,2013-04-17 11:27:00,
2013-04-17 04:42:00,20.7,19.0,30.25,SSE,150,0.0,0.0,92,0.00,,,0.00,weatherlink.com 1.10,2013-04-17 11:42:00,
2013-04-17 04:57:00,20.1,18.0,30.25,SSE,149,0.0,0.0,92,0.00,,,0.00,weatherlink.com 1.10,2013-04-17 11:57:00,
2013-04-17 05:12:00,19.8,18.0,30.25,SSE,149,0.0,0.0,92,0.00,,,0.00,weatherlink.com 1.10,2013-04-17 12:12:00,
2013-04-17 05:27:00,19.3,17.0,30.25,SSE,150,0.0,0.0,92,0.00,,,0.00,weatherlink.com 1.10,2013-04-17 12:27:00,
2013-04-17 05:42:00,19.4,18.0,30.25,SSE,150,0.0,0.0,94,0.00,,,0.00,weatherlink.com 1.10,2013-04-17 12:42:00,
2013-04-17 05:57:00,19.5,18.0,30.26,SSE,150,0.0,1.0,95,0.00,,,0.00,weatherlink.com 1.10,2013-04-17 12:57:00,
2013-04-17 06:12:00,19.3,18.0,30.26,SSE,150,0.0,0.0,95,0.00,,,0.00,weatherlink.com 1.10,2013-04-17 13:12:00,
2013-04-17 06:27:00,19.6,18.0,30.27,SSE,147,0.0,0.0,95,0.00,,,0.00,weatherlink.com 1.10,2013-04-17 13:27:00,
2013-04-17 06:42:00,19.2,18.0,30.28,SE,146,0.0,0.0,93,0.00,,,0.00,weatherlink.com 1.10,2013-04-17 13:42:00,
2013-04-17 06:57:00,19.4,18.0,30.28,SSE,160,0.0,0.0,94,0.00,,,0.00,weatherlink.com 1.10,2013-04-17 13:57:00,
2013-04-17 07:12:00,20.0,19.0,30.29,SSE,161,0.0,1.0,94,0.00,,,0.00,weatherlink.com 1.10,2013-04-17 14:12:00,
2013-04-17 07:27:00,20.7,19.0,30.29,South,172,0.0,1.0,94,0.00,,,0.00,weatherlink.com 1.10,2013-04-17 14:27:00,
2013-04-17 07:42:00,22.4,21.0,30.30,SSW,198,2.0,3.0,94,0.00,,,0.00,weatherlink.com 1.10,2013-04-17 14:42:00,
2013-04-17 07:57:00,25.0,22.0,30.30,SSE,162,1.0,2.0,89,0.00,,,0.00,weatherlink.com 1.10,2013-04-17 14:57:00,
2013-04-17 08:12:00,26.6,23.0,30.30,SSE,152,0.0,3.0,87,0.00,,,0.00,weatherlink.com 1.10,2013-04-17 15:12:00,
2013-04-17 08:27:00,28.4,25.0,30.31,SSE,155,0.0,3.0,85,0.00,,,0.00,weatherlink.com 1.10,2013-04-17 15:27:00,
2013-04-17 08:42:00,30.0,25.0,30.31,East,94,0.0,4.0,82,0.00,,,0.00,weatherlink.com 1.10,2013-04-17 15:42:00,
2013-04-17 08:57:00,31.5,25.0,30.31,East,95,0.0,2.0,78,0.00,,,0.00,weatherlink.com 1.10,2013-04-17 15:57:00,
2013-04-17 09:12:00,32.5,25.0,30.31,SE,146,0.0,2.0,75,0.00,,,0.00,weatherlink.com 1.10,2013-04-17 16:12:00,
2013-04-17 09:27:00,33.9,26.0,30.31,SE,132,0.0,1.0,72,0.00,,,0.00,weatherlink.com 1.10,2013-04-17 16:27:00,
2013-04-17 09:43:00,35.6,26.0,30.31,SE,133,0.0,1.0,67,0.00,,,0.00,weatherlink.com 1.10,2013-04-17 16:43:00,
2013-04-17 09:58:00,39.6,24.0,30.31,SW,220,2.0,3.0,55,0.00,,,0.00,weatherlink.com 1.10,2013-04-17 16:58:00,
2013-04-17 10:13:00,41.6,20.0,30.31,SSW,201,2.0,4.0,43,0.00,,,0.00,weatherlink.com 1.10,2013-04-17 17:13:00,
2013-04-17 10:28:00,40.7,20.0,30.31,South,184,1.0,6.0,44,0.00,,,0.00,weatherlink.com 1.10,2013-04-17 17:28:00,
2013-04-17 10:43:00,43.2,20.0,30.31,South,174,0.0,3.0,39,0.00,,,0.00,weatherlink.com 1.10,2013-04-17 17:43:00,
2013-04-17 10:58:00,43.3,18.0,30.31,South,186,1.0,7.0,36,0.00,,,0.00,weatherlink.com 1.10,2013-04-17 17:58:00,
2013-04-17 11:13:00,43.6,20.0,30.30,SSW,205,2.0,4.0,39,0.00,,,0.00,weatherlink.com 1.10,2013-04-17 18:13:00,
2013-04-17 11:28:00,43.5,18.0,30.30,South,191,2.0,5.0,36,0.00,,,0.00,weatherlink.com 1.10,2013-04-17 18:28:00,
2013-04-17 11:43:00,44.8,19.0,30.30,SE,143,0.0,5.0,36,0.00,,,0.00,weatherlink.com 1.10,2013-04-17 18:43:00,
2013-04-17 11:58:00,45.4,21.0,30.30,SSE,167,0.0,4.0,38,0.00,,,0.00,weatherlink.com 1.10,2013-04-17 18:58:00,
2013-04-17 12:13:00,44.9,21.0,30.30,SSE,153,1.0,5.0,38,0.00,,,0.00,weatherlink.com 1.10,2013-04-17 19:13:00,
2013-04-17 12:28:00,44.6,19.0,30.30,SE,145,1.0,5.0,36,0.00,,,0.00,weatherlink.com 1.10,2013-04-17 19:28:00,
2013-04-17 12:43:00,45.3,19.0,30.30,SSE,156,0.0,5.0,35,0.00,,,0.00,weatherlink.com 1.10,2013-04-17 19:43:00,
2013-04-17 12:58:00,44.8,19.0,30.30,ESE,103,0.0,4.0,35,0.00,,,0.00,weatherlink.com 1.10,2013-04-17 19:58:00,
2013-04-17 13:13:00,45.8,21.0,30.29,SSE,149,0.0,3.0,37,0.00,,,0.00,weatherlink.com 1.10,2013-04-17 20:13:00,
2013-04-17 13:28:00,46.7,20.0,30.30,SE,146,1.0,6.0,34,0.00,,,0.00,weatherlink.com 1.10,2013-04-17 20:28:00,
2013-04-17 13:43:00,46.3,18.0,30.29,SSE,159,0.0,4.0,32,0.00,,,0.00,weatherlink.com 1.10,2013-04-17 20:43:00,
2013-04-17 13:58:00,47.5,20.0,30.29,SSE,150,0.0,7.0,34,0.00,,,0.00,weatherlink.com 1.10,2013-04-17 20:58:00,
2013-04-17 14:13:00,46.8,20.0,30.28,SSW,198,1.0,5.0,34,0.00,,,0.00,weatherlink.com 1.10,2013-04-17 21:13:00,
2013-04-17 14:28:00,47.6,20.0,30.28,East,98,4.0,6.0,34,0.00,,,0.00,weatherlink.com 1.10,2013-04-17 21:28:00,
2013-04-17 14:43:00,47.7,19.0,30.27,SW,226,1.0,4.0,32,0.00,,,0.00,weatherlink.com 1.10,2013-04-17 21:43:00,
2013-04-17 14:58:00,48.3,21.0,30.28,West,270,2.0,6.0,34,0.00,,,0.00,weatherlink.com 1.10,2013-04-17 21:58:00,
2013-04-17 15:13:00,49.7,23.0,30.27,SW,220,4.0,4.0,35,0.00,,,0.00,weatherlink.com 1.10,2013-04-17 22:13:00,
2013-04-17 15:28:00,49.9,23.0,30.27,SSE,159,0.0,8.0,35,0.00,,,0.00,weatherlink.com 1.10,2013-04-17 22:28:00,
2013-04-17 15:43:00,49.2,22.0,30.27,South,173,1.0,5.0,34,0.00,,,0.00,weatherlink.com 1.10,2013-04-17 22:43:00,
2013-04-17 15:58:00,50.1,23.0,30.27,SW,217,2.0,4.0,34,0.00,,,0.00,weatherlink.com 1.10,2013-04-17 22:58:00,
2013-04-17 16:13:00,50.0,22.0,30.26,SE,131,0.0,7.0,34,0.00,,,0.00,weatherlink.com 1.10,2013-04-17 23:13:00,
2013-04-17 16:28:00,49.6,23.0,30.26,South,169,0.0,8.0,36,0.00,,,0.00,weatherlink.com 1.10,2013-04-17 23:28:00,
2013-04-17 16:43:00,49.0,23.0,30.26,SE,131,1.0,4.0,36,0.00,,,0.00,weatherlink.com 1.10,2013-04-17 23:43:00,
2013-04-17 16:58:00,48.6,23.0,30.26,South,177,1.0,3.0,36,0.00,,,0.00,weatherlink.com 1.10,2013-04-17 23:58:00,
2013-04-17 17:13:00,48.4,24.0,30.26,South,172,0.0,2.0,38,0.00,,,0.00,weatherlink.com 1.10,2013-04-18 00:13:00,
2013-04-17 17:28:00,47.4,23.0,30.27,SSW,195,2.0,5.0,38,0.00,,,0.00,weatherlink.com 1.10,2013-04-18 00:28:00,
2013-04-17 17:43:00,46.4,22.0,30.27,South,186,0.0,4.0,39,0.00,,,0.00,weatherlink.com 1.10,2013-04-18 00:43:00,
2013-04-17 17:58:00,45.9,23.0,30.27,South,174,0.0,3.0,41,0.00,,,0.00,weatherlink.com 1.10,2013-04-18 00:58:00,
2013-04-17 18:13:00,45.1,23.0,30.27,SSE,154,0.0,2.0,42,0.00,,,0.00,weatherlink.com 1.10,2013-04-18 01:13:00,
2013-04-17 18:43:00,44.3,22.0,30.27,SSE,160,0.0,4.0,41,0.00,,,0.00,weatherlink.com 1.10,2013-04-18 01:43:00,
2013-04-17 18:58:00,43.9,25.0,30.27,SSW,197,2.0,2.0,47,0.00,,,0.00,weatherlink.com 1.10,2013-04-18 01:58:00,
2013-04-17 19:13:00,43.0,25.0,30.27,SSE,158,0.0,2.0,49,0.00,,,0.00,weatherlink.com 1.10,2013-04-18 02:13:00,
2013-04-17 19:28:00,42.1,25.0,30.28,SSE,156,0.0,2.0,51,0.00,,,0.00,weatherlink.com 1.10,2013-04-18 02:28:00,
2013-04-17 19:43:00,40.8,26.0,30.28,SSE,153,0.0,1.0,55,0.00,,,0.00,weatherlink.com 1.10,2013-04-18 02:43:00,
2013-04-17 19:58:00,39.1,27.0,30.28,SSE,152,1.0,1.0,62,0.00,,,0.00,weatherlink.com 1.10,2013-04-18 02:58:00,
2013-04-17 20:13:00,37.3,26.0,30.28,SSE,152,0.0,0.0,63,0.00,,,0.00,weatherlink.com 1.10,2013-04-18 03:13:00,
2013-04-17 20:28:00,36.2,26.0,30.29,SSE,152,0.0,0.0,66,0.00,,,0.00,weatherlink.com 1.10,2013-04-18 03:28:00,
2013-04-17 20:44:00,35.0,26.0,30.29,SSE,152,0.0,0.0,71,0.00,,,0.00,weatherlink.com 1.10,2013-04-18 03:44:00,
2013-04-17 20:59:00,33.8,25.0,30.30,SSE,152,0.0,0.0,71,0.00,,,0.00,weatherlink.com 1.10,2013-04-18 03:59:00,
2013-04-17 21:14:00,32.7,25.0,30.30,SSE,153,0.0,0.0,73,0.00,,,0.00,weatherlink.com 1.10,2013-04-18 04:14:00,
2013-04-17 21:29:00,31.7,25.0,30.30,SSE,152,0.0,0.0,75,0.00,,,0.00,weatherlink.com 1.10,2013-04-18 04:29:00,
2013-04-17 21:44:00,30.7,24.0,30.30,SSE,152,0.0,0.0,76,0.00,,,0.00,weatherlink.com 1.10,2013-04-18 04:44:00,
2013-04-17 21:59:00,29.9,24.0,30.31,SSE,152,0.0,0.0,78,0.00,,,0.00,weatherlink.com 1.10,2013-04-18 04:59:00,
2013-04-17 22:14:00,29.3,24.0,30.31,SSE,152,0.0,0.0,80,0.00,,,0.00,weatherlink.com 1.10,2013-04-18 05:14:00,
2013-04-17 22:29:00,28.8,23.0,30.31,SSE,152,0.0,0.0,80,0.00,,,0.00,weatherlink.com 1.10,2013-04-18 05:29:00,
2013-04-17 22:44:00,28.3,24.0,30.31,SSE,153,0.0,0.0,82,0.00,,,0.00,weatherlink.com 1.10,2013-04-18 05:44:00,
2013-04-17 22:59:00,28.0,24.0,30.30,SSE,153,0.0,0.0,83,0.00,,,0.00,weatherlink.com 1.10,2013-04-18 05:59:00,
2013-04-17 23:14:00,27.8,23.0,30.30,SSE,152,0.0,0.0,83,0.00,,,0.00,weatherlink.com 1.10,2013-04-18 06:14:00,
2013-04-17 23:29:00,27.6,23.0,30.30,SSE,152,0.0,0.0,83,0.00,,,0.00,weatherlink.com 1.10,2013-04-18 06:29:00,
2013-04-17 23:44:00,27.7,24.0,30.30,SSE,152,0.0,0.0,85,0.00,,,0.00,weatherlink.com 1.10,2013-04-18 06:44:00,
2013-04-17 23:59:00,27.5,23.0,30.30,SSE,152,0.0,0.0,82,0.00,,,0.00,weatherlink.com 1.10,2013-04-18 06:59:00,